createdAt,value
2023-05-21T00:00:41.228Z,21.70
2023-05-21T00:03:13.850Z,22.30
2023-05-21T00:05:42.944Z,22.20
2023-05-21T00:08:11.172Z,22.00
2023-05-21T00:10:39.245Z,21.90
2023-05-21T00:13:08.982Z,22.30
2023-05-21T00:15:37.327Z,21.70
2023-05-21T00:18:06.091Z,21.70
2023-05-21T00:20:34.538Z,21.80
2023-05-21T00:23:05.937Z,21.80
2023-05-21T00:25:34.215Z,21.80
2023-05-21T00:28:02.710Z,21.70
2023-05-21T00:30:32.081Z,21.90
2023-05-21T00:33:03.154Z,21.60
2023-05-21T00:35:31.454Z,21.70
2023-05-21T00:38:00.360Z,22.20
2023-05-21T00:40:28.441Z,22.00
2023-05-21T00:42:57.054Z,21.90
2023-05-21T00:45:25.587Z,21.70
2023-05-21T00:47:55.556Z,21.90
2023-05-21T00:50:24.259Z,21.80
2023-05-21T00:52:52.493Z,21.90
2023-05-21T00:55:20.792Z,22.10
2023-05-21T00:57:49.611Z,21.60
2023-05-21T01:00:18.055Z,21.80
2023-05-21T01:02:46.718Z,21.70
2023-05-21T01:05:16.178Z,21.60
2023-05-21T01:07:44.439Z,21.70
2023-05-21T01:10:13.106Z,21.70
2023-05-21T01:12:44.139Z,22.10
2023-05-21T01:15:13.016Z,21.80
2023-05-21T01:17:41.621Z,21.70
2023-05-21T01:20:11.601Z,22.10
2023-05-21T01:22:52.011Z,21.70
2023-05-21T01:25:20.252Z,21.70
2023-05-21T01:27:48.297Z,21.70
2023-05-21T01:30:18.145Z,21.70
2023-05-21T01:32:53.578Z,21.90
2023-05-21T01:35:26.470Z,21.60
2023-05-21T01:38:06.283Z,21.80
2023-05-21T01:40:41.634Z,21.80
2023-05-21T01:43:10.551Z,21.90
2023-05-21T01:45:42.980Z,21.80
2023-05-21T01:48:12.892Z,21.70
2023-05-21T01:50:43.868Z,21.70
2023-05-21T01:53:13.557Z,21.70
2023-05-21T01:55:41.887Z,21.90
2023-05-21T01:58:09.967Z,22.00
2023-05-21T02:00:39.869Z,21.50
2023-05-21T02:03:08.666Z,21.70
2023-05-21T02:05:37.284Z,21.60
2023-05-21T02:08:08.255Z,21.60
2023-05-21T02:10:37.814Z,21.80
2023-05-21T02:13:05.846Z,21.60
2023-05-21T02:15:34.841Z,21.50
2023-05-21T02:18:04.229Z,21.50
2023-05-21T02:20:32.691Z,21.70
2023-05-21T02:23:00.835Z,21.60
2023-05-21T02:25:28.930Z,21.50
2023-05-21T02:27:58.311Z,21.90
2023-05-21T02:30:26.370Z,22.00
2023-05-21T02:32:54.873Z,21.60
2023-05-21T02:35:22.951Z,21.50
2023-05-21T02:37:51.024Z,21.70
2023-05-21T02:40:19.083Z,21.70
2023-05-21T02:42:47.078Z,21.70
2023-05-21T02:45:16.474Z,21.60
2023-05-21T02:47:44.517Z,22.00
2023-05-21T02:50:15.591Z,21.90
2023-05-21T02:52:43.604Z,21.50
2023-05-21T02:55:11.720Z,21.80
2023-05-21T02:57:39.751Z,21.60
2023-05-21T03:00:10.628Z,21.50
2023-05-21T03:02:40.161Z,21.60
2023-05-21T03:05:08.962Z,22.10
2023-05-21T03:07:36.959Z,21.80
2023-05-21T03:10:05.886Z,21.80
2023-05-21T03:12:33.927Z,21.90
2023-05-21T03:15:01.992Z,21.80
2023-05-21T03:17:29.977Z,21.50
2023-05-21T03:19:59.329Z,21.60
2023-05-21T03:22:27.340Z,22.00
2023-05-21T03:24:55.900Z,21.60
2023-05-21T03:27:23.974Z,21.50
2023-05-21T03:29:54.988Z,21.50
2023-05-21T03:32:23.269Z,21.80
2023-05-21T03:34:51.431Z,21.60
2023-05-21T03:37:20.866Z,21.70
2023-05-21T03:39:48.917Z,21.90
2023-05-21T03:42:17.035Z,21.60
2023-05-21T03:44:45.097Z,21.80
2023-05-21T03:47:13.138Z,21.80
2023-05-21T03:49:41.169Z,22.00
2023-05-21T03:52:09.208Z,21.50
2023-05-21T03:54:38.599Z,21.60
2023-05-21T03:57:07.077Z,21.70
2023-05-21T03:59:35.041Z,21.60
2023-05-21T04:02:03.197Z,21.90
2023-05-21T04:04:31.287Z,21.80
2023-05-21T04:06:59.548Z,21.70
2023-05-21T04:09:27.796Z,21.80
2023-05-21T04:11:57.737Z,21.80
2023-05-21T04:14:25.784Z,21.90
2023-05-21T04:16:53.849Z,21.60
2023-05-21T04:19:21.995Z,21.60
2023-05-21T04:21:50.045Z,21.60
2023-05-21T04:24:18.306Z,21.90
2023-05-21T04:26:48.041Z,22.10
2023-05-21T04:29:17.961Z,22.10
2023-05-21T04:31:46.352Z,22.10
2023-05-21T04:34:17.783Z,21.80
2023-05-21T04:36:46.255Z,21.90
2023-05-21T04:39:14.621Z,21.90
2023-05-21T04:41:42.851Z,21.70
2023-05-21T04:44:14.792Z,21.70
2023-05-21T04:46:46.017Z,21.60
2023-05-21T04:49:14.288Z,21.80
2023-05-21T04:51:42.580Z,21.90
2023-05-21T04:54:10.937Z,21.90
2023-05-21T04:56:39.039Z,21.70
2023-05-21T04:59:07.608Z,21.80
2023-05-21T05:01:35.780Z,22.00
2023-05-21T05:04:05.910Z,22.10
2023-05-21T05:06:34.037Z,22.00
2023-05-21T05:09:02.079Z,21.70
2023-05-21T05:11:30.124Z,21.90
2023-05-21T05:13:58.458Z,22.00
2023-05-21T05:16:26.596Z,21.90
2023-05-21T05:18:54.962Z,21.70
2023-05-21T05:21:24.772Z,22.00
2023-05-21T05:23:52.779Z,21.90
2023-05-21T05:26:21.322Z,22.20
2023-05-21T05:28:49.472Z,21.80
2023-05-21T05:31:17.597Z,22.40
2023-05-21T05:33:45.714Z,22.10
2023-05-21T05:36:13.725Z,21.90
2023-05-21T05:38:43.109Z,22.10
2023-05-21T05:41:11.117Z,21.90
2023-05-21T05:43:39.173Z,22.20
2023-05-21T05:46:07.349Z,22.50
2023-05-21T05:48:35.563Z,21.80
2023-05-21T05:51:03.548Z,22.50
2023-05-21T05:53:32.040Z,22.30
2023-05-21T05:56:01.414Z,22.10
2023-05-21T05:58:30.756Z,21.80
2023-05-21T06:00:58.784Z,22.10
2023-05-21T06:03:27.932Z,22.10
2023-05-21T06:05:56.043Z,22.40
2023-05-21T06:08:24.634Z,22.00
2023-05-21T06:10:52.734Z,22.10
2023-05-21T06:13:22.077Z,22.50
2023-05-21T06:15:50.397Z,22.20
2023-05-21T06:18:18.468Z,22.00
2023-05-21T06:20:46.547Z,22.50
2023-05-21T06:23:14.602Z,22.30
2023-05-21T06:25:42.674Z,22.00
2023-05-21T06:28:10.796Z,22.50
2023-05-21T06:30:40.158Z,22.20
2023-05-21T06:33:08.332Z,22.50
2023-05-21T06:35:37.497Z,22.60
2023-05-21T06:38:05.851Z,22.40
2023-05-21T06:40:33.888Z,22.40
2023-05-21T06:43:01.969Z,22.30
2023-05-21T06:45:29.999Z,22.30
2023-05-21T06:47:59.424Z,22.40
2023-05-21T06:50:27.550Z,22.40
2023-05-21T06:52:55.597Z,22.40
2023-05-21T06:55:23.908Z,22.30
2023-05-21T06:57:51.926Z,22.40
2023-05-21T07:00:20.074Z,22.60
2023-05-21T07:02:48.136Z,22.80
2023-05-21T07:05:17.606Z,22.80
2023-05-21T07:07:45.778Z,22.80
2023-05-21T07:10:13.771Z,22.90
2023-05-21T07:12:41.834Z,22.70
2023-05-21T07:15:10.685Z,22.60
2023-05-21T07:17:39.110Z,22.70
2023-05-21T07:20:10.061Z,22.90
2023-05-21T07:22:40.386Z,22.80
2023-05-21T07:25:09.813Z,22.90
2023-05-21T07:27:37.885Z,22.80
2023-05-21T07:30:07.561Z,22.90
2023-05-21T07:32:35.811Z,23.30
2023-05-21T07:35:04.036Z,22.90
2023-05-21T07:37:32.252Z,22.80
2023-05-21T07:40:01.643Z,22.90
2023-05-21T07:42:29.695Z,22.80
2023-05-21T07:44:57.710Z,23.20
2023-05-21T07:47:25.722Z,22.80
2023-05-21T07:49:53.757Z,23.00
2023-05-21T07:52:21.827Z,22.90
2023-05-21T07:54:49.876Z,22.80
2023-05-21T07:57:19.218Z,23.00
2023-05-21T07:59:47.265Z,22.70
2023-05-21T08:02:15.563Z,22.80
2023-05-21T08:04:44.431Z,22.80
2023-05-21T08:07:12.823Z,23.10
2023-05-21T08:09:40.870Z,23.10
2023-05-21T08:12:09.228Z,23.30
2023-05-21T08:14:38.853Z,23.30
2023-05-21T08:17:06.933Z,23.00
2023-05-21T08:19:34.980Z,23.20
2023-05-21T08:22:03.452Z,22.90
2023-05-21T08:24:31.485Z,23.10
2023-05-21T08:26:59.577Z,23.10
2023-05-21T08:29:27.630Z,23.20
2023-05-21T08:31:57.258Z,23.00
2023-05-21T08:34:25.495Z,23.10
2023-05-21T08:36:53.818Z,23.00
2023-05-21T08:39:21.945Z,23.20
2023-05-21T08:41:59.519Z,23.50
2023-05-21T08:44:32.077Z,23.20
2023-05-21T08:47:03.761Z,23.10
2023-05-21T08:49:35.985Z,23.50
2023-05-21T08:52:06.122Z,23.50
2023-05-21T08:54:35.852Z,23.60
2023-05-21T08:57:05.977Z,23.70
2023-05-21T08:59:35.878Z,23.10
2023-05-21T09:02:06.618Z,23.50
2023-05-21T09:04:39.566Z,23.20
2023-05-21T09:07:08.349Z,23.30
2023-05-21T09:09:43.022Z,23.40
2023-05-21T09:12:11.227Z,23.40
2023-05-21T09:14:40.465Z,23.40
2023-05-21T09:17:09.854Z,23.10
2023-05-21T09:19:37.948Z,23.20
2023-05-21T09:22:06.236Z,23.40
2023-05-21T09:24:36.314Z,23.20
2023-05-21T09:27:07.951Z,23.50
2023-05-21T09:29:36.476Z,23.10
2023-05-21T09:32:10.483Z,23.40
2023-05-21T09:34:38.622Z,23.50
2023-05-21T09:37:19.922Z,23.50
2023-05-21T09:39:54.895Z,23.20
2023-05-21T09:42:23.370Z,23.50
2023-05-21T09:44:51.562Z,23.30
2023-05-21T09:47:24.088Z,23.20
2023-05-21T09:49:52.299Z,23.20
2023-05-21T09:52:28.126Z,23.70
2023-05-21T09:54:56.153Z,23.30
2023-05-21T09:57:27.583Z,23.20
2023-05-21T09:59:55.996Z,23.30
2023-05-21T10:02:27.487Z,23.10
2023-05-21T10:04:57.064Z,23.20
2023-05-21T10:07:27.283Z,23.20
2023-05-21T10:10:11.756Z,23.60
2023-05-21T10:12:42.765Z,23.20
2023-05-21T10:15:16.129Z,23.50
2023-05-21T10:17:46.360Z,23.60
2023-05-21T10:20:24.239Z,23.50
2023-05-21T10:22:52.940Z,23.60
2023-05-21T10:25:21.869Z,23.20
2023-05-21T10:27:50.470Z,23.50
2023-05-21T10:30:19.780Z,23.40
2023-05-21T10:32:50.685Z,23.50
2023-05-21T10:35:19.434Z,23.30
2023-05-21T10:37:47.692Z,23.50
2023-05-21T10:40:16.146Z,23.60
2023-05-21T10:43:22.389Z,23.50
2023-05-21T10:46:16.315Z,23.70
2023-05-21T10:49:01.991Z,23.50
2023-05-21T10:51:39.501Z,23.30
2023-05-21T10:54:39.425Z,23.50
2023-05-21T10:57:28.156Z,23.50
2023-05-21T10:59:58.040Z,23.60
2023-05-21T11:02:27.966Z,23.40
2023-05-21T11:05:01.623Z,23.40
2023-05-21T11:07:56.266Z,23.60
2023-05-21T11:10:39.329Z,23.80
2023-05-21T11:13:13.822Z,23.90
2023-05-21T11:16:07.201Z,23.80
2023-05-21T11:19:03.486Z,23.70
2023-05-21T11:21:36.131Z,23.80
2023-05-21T11:24:10.663Z,23.50
2023-05-21T11:27:06.557Z,23.40
2023-05-21T11:29:41.492Z,23.30
2023-05-21T11:32:11.114Z,24.10
2023-05-21T11:34:41.969Z,23.90
2023-05-21T11:37:34.952Z,23.80
2023-05-21T11:40:30.569Z,23.80
2023-05-21T11:42:59.348Z,23.70
2023-05-21T11:45:31.858Z,23.70
2023-05-21T11:48:00.087Z,23.80
2023-05-21T11:50:30.721Z,23.50
2023-05-21T11:53:05.561Z,24.00
2023-05-21T11:55:34.599Z,24.00
2023-05-21T11:58:03.137Z,24.00
2023-05-21T12:00:31.170Z,24.00
2023-05-21T12:02:59.308Z,24.00
2023-05-21T12:05:28.004Z,23.60
2023-05-21T12:07:56.321Z,23.80
2023-05-21T12:10:25.749Z,23.90
2023-05-21T12:12:56.923Z,24.00
2023-05-21T12:15:27.634Z,24.00
2023-05-21T12:17:57.864Z,24.00
2023-05-21T12:20:28.956Z,24.30
2023-05-21T12:22:59.116Z,24.00
2023-05-21T12:25:29.827Z,23.90
2023-05-21T12:27:58.768Z,24.20
2023-05-21T12:30:27.704Z,24.00
2023-05-21T12:33:03.098Z,24.30
2023-05-21T12:35:32.548Z,23.80
2023-05-21T12:38:03.021Z,24.10
2023-05-21T12:40:41.196Z,24.30
2023-05-21T12:43:09.765Z,24.50
2023-05-21T12:45:40.225Z,24.40
2023-05-21T12:48:08.798Z,24.30
2023-05-21T12:50:41.315Z,24.20
2023-05-21T12:53:12.061Z,24.20
2023-05-21T12:55:41.595Z,24.00
2023-05-21T12:58:14.506Z,24.10
2023-05-21T13:00:43.165Z,24.40
2023-05-21T13:03:11.237Z,24.10
2023-05-21T13:05:42.235Z,24.30
2023-05-21T13:08:10.764Z,24.20
2023-05-21T13:10:39.101Z,24.00
2023-05-21T13:13:08.749Z,24.10
2023-05-21T13:15:36.803Z,24.30
2023-05-21T13:18:05.146Z,24.20
2023-05-21T13:20:33.220Z,24.50
2023-05-21T13:23:03.444Z,24.20
2023-05-21T13:25:33.397Z,24.30
2023-05-21T13:28:04.451Z,24.60
2023-05-21T13:30:34.219Z,24.40
2023-05-21T13:33:02.424Z,24.40
2023-05-21T13:35:32.125Z,24.20
2023-05-21T13:38:00.178Z,24.50
2023-05-21T13:40:28.659Z,24.30
2023-05-21T13:42:56.775Z,24.20
2023-05-21T13:45:28.877Z,24.30
2023-05-21T13:47:59.091Z,24.40
2023-05-21T13:50:27.456Z,24.30
2023-05-21T13:52:55.615Z,24.20
2023-05-21T13:55:23.841Z,24.30
2023-05-21T13:57:51.930Z,24.60
2023-05-21T14:00:20.137Z,24.50
2023-05-21T14:02:48.411Z,24.30
2023-05-21T14:05:18.207Z,24.10
2023-05-21T14:07:48.154Z,24.20
2023-05-21T14:10:16.261Z,24.40
2023-05-21T14:12:45.878Z,24.20
2023-05-21T14:15:13.983Z,24.50
2023-05-21T14:17:42.415Z,24.10
2023-05-21T14:20:11.882Z,24.30
2023-05-21T14:22:41.498Z,24.50
2023-05-21T14:25:10.788Z,24.00
2023-05-21T14:27:38.810Z,24.10
2023-05-21T14:30:08.752Z,24.10
2023-05-21T14:32:36.977Z,24.10
2023-05-21T14:35:06.475Z,24.10
2023-05-21T14:37:34.623Z,24.50
2023-05-21T14:40:05.595Z,24.50
2023-05-21T14:42:36.924Z,24.50
2023-05-21T14:45:18.190Z,24.50
2023-05-21T14:47:49.019Z,24.50
2023-05-21T14:50:18.740Z,24.50
2023-05-21T14:52:47.038Z,24.40
2023-05-21T14:55:18.361Z,24.10
2023-05-21T14:57:46.430Z,24.30
2023-05-21T15:00:15.227Z,24.20
2023-05-21T15:02:43.503Z,24.10
2023-05-21T15:05:11.783Z,24.30
2023-05-21T15:07:39.850Z,24.00
2023-05-21T15:10:09.834Z,24.20
2023-05-21T15:12:39.493Z,24.10
2023-05-21T15:15:08.994Z,24.30
2023-05-21T15:17:37.447Z,24.50
2023-05-21T15:20:07.463Z,24.20
2023-05-21T15:22:36.285Z,24.40
2023-05-21T15:25:05.915Z,24.20
2023-05-21T15:27:34.761Z,24.10
2023-05-21T15:30:05.175Z,24.20
2023-05-21T15:32:33.307Z,24.40
2023-05-21T15:35:01.560Z,24.40
2023-05-21T15:37:32.453Z,24.30
2023-05-21T15:40:00.770Z,24.20
2023-05-21T15:42:31.227Z,24.30
2023-05-21T15:44:59.283Z,24.10
2023-05-21T15:47:28.769Z,24.30
2023-05-21T15:49:58.907Z,24.10
2023-05-21T15:52:29.925Z,24.30
2023-05-21T15:54:57.963Z,24.40
2023-05-21T15:57:26.008Z,24.10
2023-05-21T15:59:54.037Z,23.90
2023-05-21T16:02:22.047Z,24.30
2023-05-21T16:04:51.944Z,24.00
2023-05-21T16:07:20.160Z,24.10
2023-05-21T16:09:48.180Z,23.80
2023-05-21T16:12:16.503Z,24.10
2023-05-21T16:14:44.636Z,24.10
2023-05-21T16:17:12.755Z,24.10
2023-05-21T16:19:40.961Z,23.90
2023-05-21T16:22:11.031Z,24.00
2023-05-21T16:24:39.167Z,24.10
2023-05-21T16:27:07.283Z,24.00
2023-05-21T16:29:35.350Z,24.00
2023-05-21T16:32:03.385Z,24.00
2023-05-21T16:34:31.905Z,24.20
2023-05-21T16:36:59.953Z,23.80
2023-05-21T16:39:29.359Z,24.00
2023-05-21T16:41:59.549Z,24.00
2023-05-21T16:44:27.623Z,24.40
2023-05-21T16:46:55.946Z,24.10
2023-05-21T16:49:24.022Z,23.90
2023-05-21T16:51:52.224Z,24.40
2023-05-21T16:54:20.883Z,24.20
2023-05-21T16:56:50.436Z,24.10
2023-05-21T16:59:18.901Z,24.20
2023-05-21T17:01:47.578Z,23.90
2023-05-21T17:04:15.895Z,24.10
2023-05-21T17:06:43.894Z,24.30
2023-05-21T17:09:11.931Z,23.80
2023-05-21T17:11:42.039Z,24.10
2023-05-21T17:14:13.503Z,24.20
2023-05-21T17:16:45.829Z,24.00
2023-05-21T17:19:13.917Z,23.90
2023-05-21T17:21:43.887Z,23.90
2023-05-21T17:24:11.983Z,24.20
2023-05-21T17:26:39.986Z,24.30
2023-05-21T17:29:08.016Z,24.10
2023-05-21T17:31:37.875Z,24.00
2023-05-21T17:34:05.979Z,24.30
2023-05-21T17:36:35.753Z,24.10
2023-05-21T17:39:04.406Z,24.00
2023-05-21T17:41:32.444Z,24.10
2023-05-21T17:44:00.678Z,23.90
2023-05-21T17:46:28.923Z,24.00
2023-05-21T17:48:58.443Z,24.10
2023-05-21T17:51:26.471Z,24.10
2023-05-21T17:53:54.597Z,24.20
2023-05-21T17:56:22.971Z,24.30
2023-05-21T17:58:51.385Z,24.10
2023-05-21T18:01:21.067Z,24.10
2023-05-21T18:03:49.205Z,24.10
2023-05-21T18:06:19.061Z,24.10
2023-05-21T18:08:47.095Z,24.10
2023-05-21T18:11:15.207Z,24.30
2023-05-21T18:13:43.264Z,24.30
2023-05-21T18:16:11.303Z,24.50
2023-05-21T18:18:39.418Z,24.10
2023-05-21T18:21:07.459Z,24.40
2023-05-21T18:23:36.967Z,24.00
2023-05-21T18:26:05.753Z,24.00
2023-05-21T18:28:34.236Z,24.10
2023-05-21T18:31:04.224Z,24.30
2023-05-21T18:33:32.581Z,24.00
2023-05-21T18:36:00.766Z,24.20
2023-05-21T18:38:28.726Z,24.10
2023-05-21T18:40:58.122Z,24.10
2023-05-21T18:43:26.693Z,24.10
2023-05-21T18:45:55.060Z,24.30
2023-05-21T18:48:23.132Z,23.80
2023-05-21T18:50:51.243Z,24.00
2023-05-21T18:53:19.556Z,24.00
2023-05-21T18:55:52.053Z,24.00
2023-05-21T18:58:21.656Z,24.10
2023-05-21T19:00:49.704Z,24.10
2023-05-21T19:03:17.965Z,24.00
2023-05-21T19:05:46.064Z,23.70
2023-05-21T19:08:14.135Z,24.00
2023-05-21T19:10:42.313Z,24.30
2023-05-21T19:13:11.136Z,24.00
2023-05-21T19:15:40.762Z,23.90
2023-05-21T19:18:09.110Z,24.10
2023-05-21T19:20:37.688Z,24.00
2023-05-21T19:23:06.037Z,24.30
2023-05-21T19:25:34.124Z,24.00
2023-05-21T19:28:02.173Z,23.90
2023-05-21T19:30:30.273Z,23.90
2023-05-21T19:32:59.756Z,24.00
2023-05-21T19:35:28.277Z,23.60
2023-05-21T19:37:59.244Z,23.80
2023-05-21T19:40:28.484Z,23.80
2023-05-21T19:42:56.556Z,23.70
2023-05-21T19:45:25.277Z,24.00
2023-05-21T19:47:53.419Z,23.40
2023-05-21T19:50:22.957Z,23.70
2023-05-21T19:52:57.379Z,23.40
2023-05-21T19:55:25.612Z,23.30
2023-05-21T19:57:53.590Z,23.40
2023-05-21T20:00:22.353Z,23.50
2023-05-21T20:02:50.397Z,23.60
2023-05-21T20:05:20.027Z,23.40
2023-05-21T20:07:49.439Z,23.50
2023-05-21T20:10:17.507Z,23.50
2023-05-21T20:12:46.046Z,23.40
2023-05-21T20:15:14.458Z,23.50
2023-05-21T20:17:44.222Z,23.60
2023-05-21T20:20:13.691Z,23.60
2023-05-21T20:22:41.715Z,23.40
2023-05-21T20:25:11.388Z,23.40
2023-05-21T20:27:39.713Z,23.50
2023-05-21T20:30:09.628Z,23.60
2023-05-21T20:32:38.036Z,23.40
2023-05-21T20:35:09.821Z,23.60
2023-05-21T20:37:38.260Z,23.10
2023-05-21T20:40:09.008Z,23.50
2023-05-21T20:42:40.066Z,23.40
2023-05-21T20:45:09.578Z,23.60
2023-05-21T20:47:38.366Z,23.10
2023-05-21T20:50:07.788Z,23.20
2023-05-21T20:52:36.206Z,23.10
2023-05-21T20:55:04.635Z,23.30
2023-05-21T20:57:32.701Z,23.40
2023-05-21T21:00:02.302Z,23.10
2023-05-21T21:02:30.413Z,23.50
2023-05-21T21:05:02.504Z,23.50
2023-05-21T21:07:31.941Z,23.40
2023-05-21T21:10:00.460Z,23.10
2023-05-21T21:12:28.760Z,23.00
2023-05-21T21:14:56.928Z,23.40
2023-05-21T21:17:26.429Z,23.10
2023-05-21T21:19:56.729Z,23.20
2023-05-21T21:22:29.197Z,23.00
2023-05-21T21:24:57.798Z,23.40
2023-05-21T21:27:25.810Z,23.30
2023-05-21T21:29:53.898Z,23.20
2023-05-21T21:32:22.135Z,23.30
2023-05-21T21:34:51.630Z,23.40
2023-05-21T21:37:19.691Z,23.40
2023-05-21T21:39:47.829Z,23.10
2023-05-21T21:42:15.989Z,23.30
2023-05-21T21:44:44.053Z,23.10
2023-05-21T21:47:12.506Z,23.10
2023-05-21T21:49:41.425Z,23.30
2023-05-21T21:52:12.428Z,23.30
2023-05-21T21:54:40.737Z,23.30
2023-05-21T21:57:08.783Z,23.20
2023-05-21T21:59:39.693Z,23.50
2023-05-21T22:02:07.794Z,23.10
2023-05-21T22:04:35.872Z,23.30
2023-05-21T22:07:03.997Z,23.10
2023-05-21T22:09:33.351Z,23.30
2023-05-21T22:12:07.556Z,23.10
2023-05-21T22:14:35.709Z,23.20
2023-05-21T22:17:04.091Z,23.20
2023-05-21T22:19:32.938Z,23.20
2023-05-21T22:22:02.006Z,23.40
2023-05-21T22:24:32.797Z,23.10
2023-05-21T22:27:02.741Z,23.00
2023-05-21T22:29:30.896Z,23.10
2023-05-21T22:31:59.012Z,23.20
2023-05-21T22:34:26.985Z,22.90
2023-05-21T22:36:55.100Z,22.90
2023-05-21T22:39:23.174Z,23.20
2023-05-21T22:41:51.299Z,23.10
2023-05-21T22:44:20.646Z,23.20
2023-05-21T22:46:49.476Z,23.20
2023-05-21T22:49:17.672Z,23.30
2023-05-21T22:51:46.242Z,23.20
2023-05-21T22:54:14.382Z,23.10
2023-05-21T22:56:45.367Z,23.20
2023-05-21T22:59:15.340Z,22.90
2023-05-21T23:01:44.749Z,23.40
2023-05-21T23:04:13.923Z,23.30
2023-05-21T23:06:43.033Z,23.30
2023-05-21T23:09:12.566Z,23.20
2023-05-21T23:11:41.068Z,23.20
2023-05-21T23:14:09.200Z,23.20
2023-05-21T23:16:37.263Z,23.20
2023-05-21T23:19:06.704Z,23.00
2023-05-21T23:21:34.939Z,23.10
2023-05-21T23:24:03.340Z,23.40
2023-05-21T23:26:31.425Z,23.00
2023-05-21T23:28:59.689Z,23.30
2023-05-21T23:31:28.098Z,23.30
2023-05-21T23:33:56.673Z,23.40
2023-05-21T23:36:26.058Z,22.80
2023-05-21T23:38:54.169Z,23.40
2023-05-21T23:41:22.942Z,23.40
2023-05-21T23:43:51.206Z,22.90
2023-05-21T23:46:19.623Z,22.90
2023-05-21T23:48:47.743Z,23.00
2023-05-21T23:51:16.181Z,22.80
2023-05-21T23:53:45.797Z,22.90
2023-05-21T23:56:13.864Z,23.40
2023-05-21T23:58:42.624Z,23.20
